createdAt,value
2022-10-13T00:01:12.063Z,11.90
2022-10-13T00:03:42.056Z,11.32
2022-10-13T00:06:11.195Z,12.90
2022-10-13T00:08:39.291Z,10.82
2022-10-13T00:11:13.548Z,10.98
2022-10-13T00:13:40.679Z,9.85
2022-10-13T00:16:08.296Z,10.40
2022-10-13T00:18:35.351Z,9.83
2022-10-13T00:21:08.176Z,10.40
2022-10-13T00:23:36.338Z,11.43
2022-10-13T00:26:08.639Z,10.05
2022-10-13T00:28:36.163Z,9.60
2022-10-13T00:31:03.578Z,10.30
2022-10-13T00:33:30.460Z,9.63
2022-10-13T00:35:57.216Z,10.55
2022-10-13T00:38:24.124Z,8.82
2022-10-13T00:40:54.661Z,10.45
2022-10-13T00:43:47.439Z,11.77
2022-10-13T00:46:15.200Z,11.15
2022-10-13T00:48:46.408Z,9.80
2022-10-13T00:51:16.141Z,9.35
2022-10-13T00:53:44.876Z,10.00
2022-10-13T00:56:15.204Z,9.67
2022-10-13T00:58:44.123Z,11.52
2022-10-13T01:01:11.607Z,9.82
2022-10-13T01:03:39.020Z,11.65
2022-10-13T01:06:07.283Z,10.48
2022-10-13T01:08:34.564Z,9.43
2022-10-13T01:11:21.231Z,11.50
2022-10-13T01:13:57.351Z,9.15
2022-10-13T01:16:35.643Z,9.13
2022-10-13T01:19:46.644Z,11.77
2022-10-13T01:22:40.970Z,11.57
2022-10-13T01:25:36.556Z,12.15
2022-10-13T01:28:46.496Z,10.60
2022-10-13T01:31:48.544Z,8.13
2022-10-13T01:34:29.699Z,9.80
2022-10-13T01:37:12.254Z,9.93
2022-10-13T01:39:54.208Z,10.25
2022-10-13T01:42:39.579Z,8.75
2022-10-13T01:45:16.424Z,10.10
2022-10-13T01:47:44.226Z,9.20
2022-10-13T01:50:12.198Z,10.50
2022-10-13T01:52:40.236Z,10.38
2022-10-13T01:55:10.700Z,9.05
2022-10-13T01:57:40.035Z,10.30
2022-10-13T02:00:17.218Z,10.93
2022-10-13T02:02:43.916Z,9.60
2022-10-13T02:05:26.478Z,11.23
2022-10-13T02:08:01.819Z,11.93
2022-10-13T02:10:45.780Z,9.75
2022-10-13T02:13:17.996Z,12.30
2022-10-13T02:15:49.399Z,12.43
2022-10-13T02:18:21.474Z,10.98
2022-10-13T02:20:48.942Z,10.07
2022-10-13T02:23:18.668Z,11.27
2022-10-13T02:25:47.607Z,10.35
2022-10-13T02:28:16.270Z,10.87
2022-10-13T02:30:45.397Z,11.02
2022-10-13T02:33:13.869Z,9.98
2022-10-13T02:35:41.361Z,11.27
2022-10-13T02:38:09.249Z,11.20
2022-10-13T02:40:36.007Z,11.33
2022-10-13T02:43:02.912Z,11.95
2022-10-13T02:45:29.783Z,12.95
2022-10-13T02:47:56.831Z,11.63
2022-10-13T02:50:23.744Z,15.23
2022-10-13T02:52:50.797Z,12.43
2022-10-13T02:55:17.923Z,12.23
2022-10-13T02:57:45.813Z,11.90
2022-10-13T03:00:14.052Z,12.50
2022-10-13T03:02:40.803Z,11.65
2022-10-13T03:05:08.064Z,11.77
2022-10-13T03:07:35.041Z,12.48
2022-10-13T03:10:02.106Z,11.43
2022-10-13T03:12:28.891Z,11.52
2022-10-13T03:14:55.726Z,11.30
2022-10-13T03:17:23.324Z,11.87
2022-10-13T03:19:50.174Z,15.77
2022-10-13T03:22:18.370Z,14.10
2022-10-13T03:24:45.642Z,11.93
2022-10-13T03:27:12.563Z,14.93
2022-10-13T03:29:39.404Z,12.43
2022-10-13T03:32:06.216Z,14.80
2022-10-13T03:34:33.036Z,13.77
2022-10-13T03:36:59.876Z,12.95
2022-10-13T03:39:32.298Z,12.75
2022-10-13T03:41:59.085Z,13.00
2022-10-13T03:44:25.934Z,15.20
2022-10-13T03:46:52.684Z,11.80
2022-10-13T03:49:19.567Z,13.25
2022-10-13T03:51:46.436Z,14.13
2022-10-13T03:54:14.115Z,12.30
2022-10-13T03:56:41.107Z,13.18
2022-10-13T03:59:07.958Z,13.57
2022-10-13T04:01:34.825Z,14.75
2022-10-13T04:04:02.366Z,13.93
2022-10-13T04:06:30.338Z,14.67
2022-10-13T04:08:58.422Z,15.30
2022-10-13T04:11:25.317Z,13.25
2022-10-13T04:13:56.863Z,14.63
2022-10-13T04:16:27.261Z,13.70
2022-10-13T04:19:01.982Z,14.97
2022-10-13T04:21:30.759Z,14.10
2022-10-13T04:23:59.125Z,17.98
2022-10-13T04:26:29.171Z,20.52
2022-10-13T04:28:56.501Z,15.80
2022-10-13T04:31:24.401Z,17.20
2022-10-13T04:33:52.343Z,16.98
2022-10-13T04:36:19.894Z,18.63
2022-10-13T04:38:50.230Z,18.20
2022-10-13T04:41:18.543Z,16.92
2022-10-13T04:43:49.003Z,16.47
2022-10-13T04:46:22.264Z,15.05
2022-10-13T04:48:49.873Z,17.05
2022-10-13T04:51:19.930Z,15.50
2022-10-13T04:53:47.657Z,14.93
2022-10-13T04:56:17.883Z,15.73
2022-10-13T04:58:46.450Z,16.20
2022-10-13T05:01:21.206Z,20.30
2022-10-13T05:03:51.980Z,19.23
2022-10-13T05:06:24.557Z,18.15
2022-10-13T05:08:55.487Z,20.43
2022-10-13T05:11:23.323Z,20.92
2022-10-13T05:13:50.313Z,20.85
2022-10-13T05:16:19.040Z,20.48
2022-10-13T05:18:45.984Z,22.38
2022-10-13T05:21:15.489Z,20.03
2022-10-13T05:23:42.836Z,19.10
2022-10-13T05:26:15.609Z,19.02
2022-10-13T05:28:43.801Z,21.80
2022-10-13T05:31:19.370Z,19.52
2022-10-13T05:33:47.162Z,21.40
2022-10-13T05:36:23.112Z,18.38
2022-10-13T05:38:51.804Z,18.02
2022-10-13T05:41:19.155Z,21.85
2022-10-13T05:43:46.132Z,19.45
2022-10-13T05:46:12.923Z,19.07
2022-10-13T05:48:40.356Z,17.75
2022-10-13T05:51:15.793Z,18.13
2022-10-13T05:53:51.087Z,16.90
2022-10-13T05:56:24.558Z,19.55
2022-10-13T05:58:55.946Z,30.83
2022-10-13T06:01:26.674Z,24.38
2022-10-13T06:03:56.308Z,42.40
2022-10-13T06:06:29.037Z,27.67
2022-10-13T06:08:58.458Z,24.85
2022-10-13T06:11:25.322Z,26.83
2022-10-13T06:13:52.147Z,25.20
2022-10-13T06:16:19.077Z,24.70
2022-10-13T06:18:47.663Z,40.33
2022-10-13T06:21:14.698Z,28.15
2022-10-13T06:23:41.525Z,29.30
2022-10-13T06:26:08.648Z,26.35
2022-10-13T06:28:37.294Z,30.20
2022-10-13T06:31:06.276Z,30.83
2022-10-13T06:33:34.348Z,30.23
2022-10-13T06:36:02.816Z,32.40
2022-10-13T06:38:29.664Z,29.30
2022-10-13T06:41:03.755Z,32.25
2022-10-13T06:43:39.595Z,27.92
2022-10-13T06:46:10.277Z,29.35
2022-10-13T06:48:37.249Z,26.80
2022-10-13T06:51:09.783Z,33.35
2022-10-13T06:53:36.857Z,28.92
2022-10-13T06:56:06.232Z,39.65
2022-10-13T06:58:35.454Z,36.03
2022-10-13T07:01:02.524Z,33.53
2022-10-13T07:03:29.428Z,31.15
2022-10-13T07:06:01.835Z,38.58
2022-10-13T07:08:28.682Z,33.85
2022-10-13T07:10:55.523Z,44.10
2022-10-13T07:15:53.999Z,36.28
2022-10-13T07:18:20.793Z,39.63
2022-10-13T07:20:47.602Z,41.83
2022-10-13T07:23:14.436Z,40.05
2022-10-13T07:25:41.873Z,42.93
2022-10-13T07:28:08.885Z,38.13
2022-10-13T07:30:35.843Z,31.95
2022-10-13T07:33:02.573Z,33.80
2022-10-13T07:35:30.878Z,33.30
2022-10-13T07:37:58.102Z,32.17
2022-10-13T07:40:24.990Z,38.17
2022-10-13T07:42:51.747Z,35.05
2022-10-13T07:45:18.517Z,34.40
2022-10-13T07:47:45.258Z,28.90
2022-10-13T07:50:12.118Z,31.07
2022-10-13T07:52:38.979Z,32.22
2022-10-13T07:55:06.608Z,35.90
2022-10-13T07:57:33.542Z,34.28
2022-10-13T08:00:00.488Z,35.58
2022-10-13T08:02:27.381Z,31.50
2022-10-13T08:04:54.121Z,35.65
2022-10-13T08:07:21.204Z,30.63
2022-10-13T08:09:49.617Z,33.47
2022-10-13T08:12:16.536Z,32.20
2022-10-13T08:14:43.608Z,33.00
2022-10-13T08:17:10.765Z,29.60
2022-10-13T08:19:37.453Z,31.13
2022-10-13T08:22:07.844Z,33.33
2022-10-13T08:24:37.231Z,30.45
2022-10-13T08:27:04.184Z,31.57
2022-10-13T08:29:32.518Z,30.83
2022-10-13T08:31:59.316Z,34.78
2022-10-13T08:34:26.073Z,32.85
2022-10-13T08:36:53.914Z,32.40
2022-10-13T08:39:21.900Z,33.63
2022-10-13T08:41:50.698Z,36.72
2022-10-13T08:47:28.011Z,35.97
2022-10-13T08:50:03.769Z,32.95
2022-10-13T08:52:47.794Z,36.10
2022-10-13T08:55:41.332Z,32.17
2022-10-13T08:58:24.823Z,34.08
2022-10-13T09:01:10.463Z,36.45
2022-10-13T09:04:08.352Z,36.50
2022-10-13T09:06:49.942Z,36.23
2022-10-13T09:09:17.081Z,34.97
2022-10-13T09:11:46.686Z,33.05
2022-10-13T09:14:22.028Z,38.17
2022-10-13T09:16:50.116Z,34.80
2022-10-13T09:19:25.202Z,39.17
2022-10-13T09:21:57.635Z,36.33
2022-10-13T09:24:26.814Z,30.23
2022-10-13T09:27:11.740Z,82.95
2022-10-13T09:29:39.817Z,40.03
2022-10-13T09:32:14.919Z,34.10
2022-10-13T09:34:41.958Z,31.17
2022-10-13T09:37:23.213Z,35.33
2022-10-13T09:40:20.631Z,33.28
2022-10-13T09:42:54.232Z,31.50
2022-10-13T09:45:24.661Z,37.77
2022-10-13T09:48:20.383Z,33.20
2022-10-13T09:50:53.412Z,33.42
2022-10-13T09:53:33.597Z,36.17
2022-10-13T09:56:23.716Z,33.30
2022-10-13T09:59:21.241Z,29.70
2022-10-13T10:01:49.235Z,32.13
2022-10-13T10:04:37.641Z,31.30
2022-10-13T10:07:18.975Z,33.38
2022-10-13T10:09:51.317Z,32.95
2022-10-13T10:12:27.562Z,34.63
2022-10-13T10:14:55.589Z,29.65
2022-10-13T10:17:42.641Z,32.22
2022-10-13T10:20:31.098Z,33.78
2022-10-13T10:23:23.184Z,34.60
2022-10-13T10:25:54.108Z,31.40
2022-10-13T10:28:44.332Z,30.38
2022-10-13T10:31:19.208Z,33.63
2022-10-13T10:34:15.490Z,35.38
2022-10-13T10:36:52.371Z,34.42
2022-10-13T10:39:40.295Z,32.50
2022-10-13T10:42:29.971Z,38.85
2022-10-13T10:45:01.831Z,31.92
2022-10-13T10:47:40.032Z,35.45
2022-10-13T10:50:08.183Z,84.05
2022-10-13T10:52:49.815Z,36.60
2022-10-13T10:55:24.626Z,27.52
2022-10-13T10:57:57.291Z,31.65
2022-10-13T11:00:24.877Z,28.83
2022-10-13T11:03:08.423Z,30.13
2022-10-13T11:05:58.879Z,27.03
2022-10-13T11:08:37.715Z,29.45
2022-10-13T11:11:26.789Z,33.05
2022-10-13T11:14:03.139Z,29.10
2022-10-13T11:16:53.010Z,29.48
2022-10-13T11:19:33.812Z,30.93
2022-10-13T11:22:00.527Z,30.55
2022-10-13T11:24:42.086Z,29.48
2022-10-13T11:27:16.911Z,32.70
2022-10-13T11:29:43.643Z,29.38
2022-10-13T11:32:25.778Z,31.63
2022-10-13T11:35:19.684Z,29.50
2022-10-13T11:38:06.867Z,28.38
2022-10-13T11:40:37.814Z,27.17
2022-10-13T11:43:10.313Z,28.17
2022-10-13T11:45:45.877Z,31.57
2022-10-13T11:48:54.220Z,28.10
2022-10-13T11:51:52.746Z,25.20
2022-10-13T11:54:19.509Z,28.05
2022-10-13T11:56:52.751Z,24.70
2022-10-13T11:59:27.299Z,26.07
2022-10-13T12:02:18.724Z,25.88
2022-10-13T12:05:00.729Z,23.80
2022-10-13T12:07:36.093Z,22.83
2022-10-13T12:10:07.474Z,25.13
2022-10-13T12:12:34.748Z,24.83
2022-10-13T12:15:05.916Z,25.27
2022-10-13T12:17:35.503Z,23.85
2022-10-13T12:20:21.151Z,24.17
2022-10-13T12:22:49.734Z,24.30
2022-10-13T12:25:25.610Z,24.33
2022-10-13T12:28:00.242Z,24.65
2022-10-13T12:30:36.702Z,25.85
2022-10-13T12:33:18.083Z,26.10
2022-10-13T12:35:45.049Z,23.08
2022-10-13T12:38:18.854Z,26.10
2022-10-13T12:40:48.384Z,23.13
2022-10-13T12:43:24.704Z,26.73
2022-10-13T12:45:52.032Z,24.10
2022-10-13T12:48:36.084Z,28.75
2022-10-13T12:51:16.295Z,24.10
2022-10-13T12:53:44.634Z,22.65
2022-10-13T12:56:30.888Z,24.25
2022-10-13T12:58:58.879Z,23.20
2022-10-13T13:01:32.539Z,25.20
2022-10-13T13:04:38.606Z,25.73
2022-10-13T13:07:06.394Z,26.42
2022-10-13T13:09:36.848Z,24.38
2022-10-13T13:12:10.762Z,23.40
2022-10-13T13:14:41.912Z,26.55
2022-10-13T13:17:38.488Z,23.13
2022-10-13T13:20:20.410Z,35.20
2022-10-13T13:22:47.405Z,25.98
2022-10-13T13:25:15.451Z,26.73
2022-10-13T13:27:42.357Z,25.98
2022-10-13T13:30:14.828Z,24.93
2022-10-13T13:32:41.686Z,27.63
2022-10-13T13:35:09.356Z,31.92
2022-10-13T13:37:43.217Z,25.15
2022-10-13T13:40:19.494Z,25.30
2022-10-13T13:42:46.411Z,23.27
2022-10-13T13:45:15.058Z,26.85
2022-10-13T13:47:42.247Z,26.15
2022-10-13T13:50:33.225Z,27.35
2022-10-13T13:53:00.171Z,28.83
2022-10-13T13:55:27.852Z,26.33
2022-10-13T13:57:54.644Z,28.08
2022-10-13T14:00:21.960Z,30.27
2022-10-13T14:02:56.298Z,28.23
2022-10-13T14:05:23.641Z,28.30
2022-10-13T14:07:54.001Z,25.40
2022-10-13T14:10:21.864Z,29.80
2022-10-13T14:12:48.602Z,28.80
2022-10-13T14:15:15.695Z,27.40
2022-10-13T14:17:42.604Z,28.45
2022-10-13T14:20:09.963Z,29.73
2022-10-13T14:22:38.941Z,26.25
2022-10-13T14:25:07.328Z,26.98
2022-10-13T14:27:35.331Z,27.92
2022-10-13T14:30:02.491Z,28.77
2022-10-13T14:32:29.296Z,26.87
2022-10-13T14:34:56.097Z,31.15
2022-10-13T14:37:23.578Z,26.40
2022-10-13T14:39:51.937Z,27.00
2022-10-13T14:42:18.652Z,24.63
2022-10-13T14:44:45.448Z,26.23
2022-10-13T14:47:12.341Z,29.98
2022-10-13T14:49:39.592Z,25.52
2022-10-13T14:52:06.427Z,27.85
2022-10-13T14:54:33.187Z,32.30
2022-10-13T14:56:59.996Z,27.17
2022-10-13T14:59:27.008Z,30.73
2022-10-13T15:01:53.775Z,28.48
2022-10-13T15:04:20.605Z,27.50
2022-10-13T15:06:47.318Z,29.38
2022-10-13T15:09:14.143Z,28.33
2022-10-13T15:11:41.005Z,26.40
2022-10-13T15:14:07.915Z,25.55
2022-10-13T15:16:34.734Z,26.05
2022-10-13T15:19:01.483Z,30.10
2022-10-13T15:21:30.084Z,29.03
2022-10-13T15:23:57.018Z,28.77
2022-10-13T15:26:23.816Z,27.02
2022-10-13T15:28:53.052Z,26.73
2022-10-13T15:31:22.287Z,29.58
2022-10-13T15:33:51.607Z,28.67
2022-10-13T15:36:22.188Z,27.15
2022-10-13T15:38:49.081Z,28.33
2022-10-13T15:41:16.022Z,26.85
2022-10-13T15:43:43.042Z,27.02
2022-10-13T15:46:14.790Z,27.50
2022-10-13T15:48:41.535Z,28.20
2022-10-13T15:51:20.050Z,30.13
2022-10-13T15:53:47.871Z,29.08
2022-10-13T15:56:16.823Z,27.90
2022-10-13T15:58:43.646Z,27.13
2022-10-13T16:01:12.467Z,29.52
2022-10-13T16:03:39.769Z,35.15
2022-10-13T16:06:09.386Z,28.60
2022-10-13T16:08:37.246Z,29.75
2022-10-13T16:11:12.251Z,32.03
2022-10-13T16:13:39.629Z,29.25
2022-10-13T16:16:07.059Z,30.73
2022-10-13T16:18:38.469Z,28.25
2022-10-13T16:21:31.779Z,31.67
2022-10-13T16:23:59.342Z,29.80
2022-10-13T16:26:26.174Z,31.48
2022-10-13T16:28:56.370Z,30.23
2022-10-13T16:31:24.381Z,36.88
2022-10-13T16:33:51.074Z,39.15
2022-10-13T16:36:19.625Z,38.87
2022-10-13T16:38:52.420Z,37.92
2022-10-13T16:41:19.208Z,35.03
2022-10-13T16:43:46.768Z,37.90
2022-10-13T16:46:15.847Z,32.92
2022-10-13T16:48:44.064Z,30.50
2022-10-13T16:51:22.467Z,33.70
2022-10-13T16:54:07.557Z,37.05
2022-10-13T16:56:34.476Z,33.53
2022-10-13T16:59:03.395Z,32.72
2022-10-13T17:01:31.494Z,33.17
2022-10-13T17:03:58.418Z,35.53
2022-10-13T17:06:27.505Z,30.25
2022-10-13T17:08:55.343Z,32.70
2022-10-13T17:11:27.973Z,34.17
2022-10-13T17:13:56.981Z,34.80
2022-10-13T17:16:41.505Z,33.05
2022-10-13T17:19:10.761Z,30.35
2022-10-13T17:21:37.770Z,34.60
2022-10-13T17:24:08.161Z,31.90
2022-10-13T17:26:35.406Z,32.53
2022-10-13T17:29:02.998Z,37.95
2022-10-13T17:31:31.056Z,33.65
2022-10-13T17:33:59.943Z,31.67
2022-10-13T17:36:30.520Z,31.92
2022-10-13T17:39:04.740Z,33.00
2022-10-13T17:41:33.080Z,28.90
2022-10-13T17:44:01.335Z,28.33
2022-10-13T17:46:36.979Z,28.92
2022-10-13T17:49:15.642Z,29.00
2022-10-13T17:51:46.809Z,25.27
2022-10-13T17:54:16.971Z,25.05
2022-10-13T17:56:45.038Z,22.90
2022-10-13T17:59:18.410Z,26.75
2022-10-13T18:01:47.285Z,24.02
2022-10-13T18:04:19.383Z,25.17
2022-10-13T18:06:50.483Z,25.35
2022-10-13T18:09:27.080Z,23.08
2022-10-13T18:11:58.109Z,25.13
2022-10-13T18:14:27.129Z,25.80
2022-10-13T18:16:56.992Z,23.93
2022-10-13T18:19:25.799Z,24.95
2022-10-13T18:21:53.756Z,25.70
2022-10-13T18:24:22.047Z,23.63
2022-10-13T18:26:52.918Z,25.90
2022-10-13T18:29:24.978Z,23.37
2022-10-13T18:31:58.626Z,25.75
2022-10-13T18:34:30.261Z,24.05
2022-10-13T18:37:02.188Z,22.70
2022-10-13T18:39:31.906Z,22.38
2022-10-13T18:42:03.920Z,22.53
2022-10-13T18:44:38.045Z,26.70
2022-10-13T18:47:08.439Z,26.55
2022-10-13T18:49:37.243Z,23.92
2022-10-13T18:52:05.563Z,25.63
2022-10-13T18:54:36.994Z,28.23
2022-10-13T18:57:07.184Z,24.98
2022-10-13T18:59:35.103Z,26.00
2022-10-13T19:02:03.387Z,25.15
2022-10-13T19:04:32.005Z,23.70
2022-10-13T19:07:00.300Z,25.73
2022-10-13T19:09:28.164Z,25.30
2022-10-13T19:11:56.818Z,23.80
2022-10-13T19:14:24.858Z,26.92
2022-10-13T19:16:56.064Z,26.63
2022-10-13T19:19:29.291Z,24.20
2022-10-13T19:21:58.280Z,27.02
2022-10-13T19:24:26.394Z,26.20
2022-10-13T19:26:54.245Z,26.55
2022-10-13T19:29:22.171Z,26.60
2022-10-13T19:31:49.422Z,26.53
2022-10-13T19:34:18.357Z,31.42
2022-10-13T19:36:47.564Z,30.02
2022-10-13T19:39:24.335Z,27.13
2022-10-13T19:41:54.322Z,30.00
2022-10-13T19:44:23.957Z,29.57
2022-10-13T19:46:53.055Z,29.38
2022-10-13T19:49:23.650Z,31.83
2022-10-13T19:51:53.807Z,30.95
2022-10-13T19:54:22.276Z,30.65
2022-10-13T19:56:50.953Z,29.30
2022-10-13T19:59:19.996Z,30.05
2022-10-13T20:01:47.291Z,28.48
2022-10-13T20:04:17.228Z,30.83
2022-10-13T20:06:45.410Z,30.60
2022-10-13T20:09:13.353Z,29.77
2022-10-13T20:11:40.698Z,28.27
2022-10-13T20:14:11.083Z,29.00
2022-10-13T20:16:38.471Z,31.52
2022-10-13T20:19:06.647Z,27.63
2022-10-13T20:21:34.590Z,25.07
2022-10-13T20:24:01.534Z,26.50
2022-10-13T20:26:28.640Z,27.88
2022-10-13T20:28:55.992Z,26.23
2022-10-13T20:31:23.253Z,27.77
2022-10-13T20:33:57.860Z,25.80
2022-10-13T20:36:33.667Z,29.67
2022-10-13T20:39:04.411Z,29.30
2022-10-13T20:41:32.323Z,32.05
2022-10-13T20:44:00.584Z,28.75
2022-10-13T20:46:29.895Z,26.97
2022-10-13T20:49:13.244Z,30.50
2022-10-13T20:51:42.114Z,29.17
2022-10-13T20:54:10.196Z,28.98
2022-10-13T20:56:37.265Z,29.08
2022-10-13T20:59:09.594Z,31.77
2022-10-13T21:01:37.169Z,30.55
2022-10-13T21:04:04.859Z,30.10
2022-10-13T21:06:31.851Z,28.92
2022-10-13T21:09:00.453Z,33.67
2022-10-13T21:11:27.279Z,29.83
2022-10-13T21:13:54.072Z,29.65
2022-10-13T21:16:26.267Z,34.55
2022-10-13T21:18:54.277Z,36.90
2022-10-13T21:21:23.981Z,31.75
2022-10-13T21:23:52.312Z,31.53
2022-10-13T21:26:21.898Z,33.30
2022-10-13T21:28:49.484Z,32.30
2022-10-13T21:31:17.901Z,34.22
2022-10-13T21:33:44.943Z,32.92
2022-10-13T21:36:18.633Z,32.03
2022-10-13T21:38:46.959Z,30.60
2022-10-13T21:41:14.994Z,30.55
2022-10-13T21:43:41.935Z,29.35
2022-10-13T21:46:13.152Z,28.55
2022-10-13T21:48:43.282Z,30.77
2022-10-13T21:51:21.732Z,27.17
2022-10-13T21:53:57.105Z,32.90
2022-10-13T21:56:25.708Z,29.48
2022-10-13T21:58:53.535Z,30.42
2022-10-13T22:01:21.166Z,26.87
2022-10-13T22:03:48.952Z,31.98
2022-10-13T22:06:19.847Z,31.98
2022-10-13T22:08:49.352Z,30.55
2022-10-13T22:11:22.217Z,29.17
2022-10-13T22:13:48.976Z,32.43
2022-10-13T22:16:27.431Z,29.13
2022-10-13T22:18:55.997Z,32.92
2022-10-13T22:21:28.138Z,28.10
2022-10-13T22:24:00.928Z,29.30
2022-10-13T22:26:30.751Z,32.90
2022-10-13T22:28:59.285Z,31.85
2022-10-13T22:31:26.867Z,27.92
2022-10-13T22:33:54.277Z,30.23
2022-10-13T22:36:23.013Z,30.15
2022-10-13T22:38:51.571Z,32.37
2022-10-13T22:41:19.662Z,28.02
2022-10-13T22:43:55.820Z,30.67
2022-10-13T22:46:25.532Z,27.42
2022-10-13T22:48:52.535Z,27.08
2022-10-13T22:51:22.284Z,29.17
2022-10-13T22:53:50.113Z,29.65
2022-10-13T22:56:28.872Z,29.13
2022-10-13T22:59:01.431Z,28.13
2022-10-13T23:01:28.891Z,31.05
2022-10-13T23:03:57.541Z,27.67
2022-10-13T23:06:30.028Z,28.63
2022-10-13T23:09:00.523Z,26.83
2022-10-13T23:11:27.802Z,27.85
2022-10-13T23:13:55.663Z,28.02
2022-10-13T23:16:24.221Z,26.90
2022-10-13T23:18:52.305Z,27.27
2022-10-13T23:21:28.124Z,32.33
2022-10-13T23:23:57.456Z,31.23
2022-10-13T23:26:24.664Z,28.00
2022-10-13T23:28:52.601Z,27.47
2022-10-13T23:31:19.444Z,29.25
2022-10-13T23:33:46.544Z,30.23
2022-10-13T23:36:16.484Z,30.25
2022-10-13T23:38:48.559Z,30.77
2022-10-13T23:41:16.439Z,30.07
2022-10-13T23:43:43.845Z,29.90
2022-10-13T23:46:11.139Z,27.30
2022-10-13T23:48:39.597Z,30.88
2022-10-13T23:51:12.849Z,26.38
2022-10-13T23:53:40.728Z,27.67
2022-10-13T23:56:09.248Z,30.33
2022-10-13T23:58:37.472Z,29.67
